Peoria, IL

7:24 AM CST on November 27, 2014 (GMT -0600)
Chapel Park | Change Station
CLOSE
Current Station
Personal Weather Station
Location: Peoria, IL
Elevation: 770 ft
Nearby Weather Stations

Elev 770 ft 40.82 °N, 89.62 °W | Updated 11 seconds ago

Overcast
Overcast
24.7 °F
Feels Like 17 °F
N
7.0
Wind Variable Wind from WNW
Gusts 8.0 mph

Today
High -- | Low -- °F
--% Chance of Precip.
Yesterday
High -- | Low -- °F
Precip. -- in
6:59 AM 4:32 PM
Waxing Crescent, 29% visible
Pressure 30.40 in
Visibility 9.0 miles
Clouds Mostly Cloudy 2400 ft
Overcast 3300 ft
Windchill 17 °F
Dew Point 22 °F
Humidity 88%
Rainfall 0.00 in
Snow Depth Not available.
UV 0.0 out of 12
Pollen .10 out of 12
Air Quality Not available.
Flu Activity Not available.
METAR KPIA 271254Z 31007KT 9SM BKN024 OVC033 M03/M07 A3038 RMK AO2 SLP294 T10281067

More Conditions Fewer Conditions

Pressure 30.40 in
Visibility 9.0 miles
Clouds Mostly Cloudy 2400 ft
Overcast 3300 ft
Windchill 17 °F
Dew Point 22 °F
Humidity 88%
Rainfall 0.00 in
Snow Depth Not available.
UV 0.0 out of 12
Pollen .10 out of 12
Air Quality Not available.
Flu Activity Not available.
METAR KPIA 271254Z 31007KT 9SM BKN024 OVC033 M03/M07 A3038 RMK AO2 SLP294 T10281067

More Conditions Fewer Conditions

10-Day Weather Forecast

Almanac

Astronomy

Nov. 27, 2014 Rise Set
Actual Time
Civil Twilight
Nautical Twilight
Astronomical Twilight
Moon
Length of Visible Light
Length of Day
Tomorrow will be .
, % of the Moon is Illuminated

Today's Extremes

State Highs State Lows

Community

WunderPhotos

Upload Photos

1,773,995 photos uploaded!

WunderBlogs® & News

Nearby

Air Quality

  Air Quality AQ Index Pollutant
Not available.

Snow Depth

Station Depth Elevation

Earthquake Activity

City Distance Mag. Time & Date
Minimum magnitude displayed is 2.5.

Coastal Water Temperatures

Place Temperature

Nearby Weather Stations